createdAt,value
2018-12-22T00:00:11.608Z,10.00
2018-12-22T00:02:46.037Z,9.80
2018-12-22T00:05:20.159Z,9.90
2018-12-22T00:10:28.935Z,10.00
2018-12-22T00:13:04.835Z,10.00
2018-12-22T00:15:38.743Z,10.00
2018-12-22T00:18:13.465Z,9.90
2018-12-22T00:20:44.313Z,10.00
2018-12-22T00:23:18.422Z,10.50
2018-12-22T00:25:52.373Z,10.00
2018-12-22T00:28:27.173Z,10.00
2018-12-22T00:31:01.100Z,10.00
2018-12-22T00:33:35.190Z,9.90
2018-12-22T00:36:05.911Z,10.00
2018-12-22T00:38:39.913Z,9.80
2018-12-22T00:41:10.029Z,9.90
2018-12-22T00:43:45.284Z,9.80
2018-12-22T00:46:20.102Z,9.80
2018-12-22T00:48:54.118Z,9.90
2018-12-22T00:51:28.969Z,9.90
2018-12-22T00:54:02.969Z,9.80
2018-12-22T00:56:37.787Z,9.90
2018-12-22T00:59:11.726Z,9.90
2018-12-22T01:01:45.749Z,10.00
2018-12-22T01:04:19.761Z,9.90
2018-12-22T01:06:53.678Z,9.90
2018-12-22T01:09:27.601Z,9.90
2018-12-22T01:12:02.378Z,9.90
2018-12-22T01:14:37.202Z,9.70
2018-12-22T01:17:11.330Z,9.80
2018-12-22T01:19:45.350Z,9.80
2018-12-22T01:22:19.534Z,9.80
2018-12-22T01:24:54.230Z,9.80
2018-12-22T01:27:28.137Z,9.70
2018-12-22T01:30:03.204Z,9.80
2018-12-22T01:32:38.039Z,9.80
2018-12-22T01:35:11.990Z,9.80
2018-12-22T01:37:46.109Z,9.90
2018-12-22T01:40:20.850Z,9.90
2018-12-22T01:42:55.002Z,9.90
2018-12-22T01:45:29.828Z,9.90
2018-12-22T01:48:03.849Z,10.00
2018-12-22T01:50:38.066Z,9.90
2018-12-22T01:53:13.057Z,9.90
2018-12-22T01:55:47.706Z,9.80
2018-12-22T01:58:22.445Z,9.70
2018-12-22T02:00:57.162Z,9.80
2018-12-22T02:03:31.289Z,9.80
2018-12-22T02:06:05.421Z,9.80
2018-12-22T02:08:39.357Z,9.90
2018-12-22T02:11:13.773Z,9.80
2018-12-22T02:13:48.764Z,9.90
2018-12-22T02:16:22.681Z,9.90
2018-12-22T02:18:56.614Z,9.90
2018-12-22T02:21:30.536Z,9.80
2018-12-22T02:24:04.493Z,10.00
2018-12-22T02:26:39.201Z,10.00
2018-12-22T02:29:14.047Z,9.90
2018-12-22T02:31:44.269Z,9.80
2018-12-22T02:34:19.101Z,9.90
2018-12-22T02:36:49.225Z,10.00
2018-12-22T02:39:28.499Z,10.00
2018-12-22T02:42:05.075Z,9.90
2018-12-22T02:44:39.959Z,10.00
2018-12-22T02:47:13.989Z,10.00
2018-12-22T02:49:48.028Z,9.90
2018-12-22T02:52:24.856Z,10.00
2018-12-22T02:54:59.198Z,9.90
2018-12-22T02:57:34.026Z,10.00
2018-12-22T03:00:09.614Z,9.90
2018-12-22T03:02:44.207Z,10.00
2018-12-22T03:05:18.179Z,9.90
2018-12-22T03:07:52.908Z,9.90
2018-12-22T03:10:26.856Z,9.90
2018-12-22T03:13:04.711Z,9.80
2018-12-22T03:15:39.526Z,9.80
2018-12-22T03:18:14.138Z,9.80
2018-12-22T03:20:44.862Z,9.90
2018-12-22T03:23:19.727Z,9.90
2018-12-22T03:25:53.881Z,9.80
2018-12-22T03:28:28.697Z,9.80
2018-12-22T03:31:02.628Z,9.90
2018-12-22T03:33:38.458Z,9.90
2018-12-22T03:36:09.257Z,9.80
2018-12-22T03:38:44.115Z,9.80
2018-12-22T03:41:18.061Z,9.80
2018-12-22T03:43:52.941Z,9.80
2018-12-22T03:46:23.664Z,9.80
2018-12-22T03:48:58.474Z,9.90
2018-12-22T03:51:33.189Z,9.90
2018-12-22T03:54:13.863Z,9.90
2018-12-22T03:56:48.066Z,9.90
2018-12-22T03:59:24.941Z,10.00
2018-12-22T04:01:58.605Z,9.90
2018-12-22T04:04:33.429Z,9.80
2018-12-22T04:07:07.682Z,9.80
2018-12-22T04:09:41.586Z,9.80
2018-12-22T04:12:13.204Z,9.80
2018-12-22T04:14:44.001Z,9.80
2018-12-22T04:17:17.941Z,9.80
2018-12-22T04:19:52.080Z,9.80
2018-12-22T04:22:27.093Z,9.70
2018-12-22T04:25:01.038Z,9.70
2018-12-22T04:27:35.041Z,9.80
2018-12-22T04:30:08.957Z,9.80
2018-12-22T04:32:43.136Z,9.80
2018-12-22T04:35:17.658Z,9.80
2018-12-22T04:37:51.839Z,9.90
2018-12-22T04:40:22.645Z,9.90
2018-12-22T04:42:53.454Z,9.90
2018-12-22T04:45:24.178Z,10.00
2018-12-22T04:47:58.336Z,10.00
2018-12-22T04:50:32.235Z,10.00
2018-12-22T04:53:08.358Z,10.00
2018-12-22T04:55:42.592Z,10.00
2018-12-22T04:58:12.727Z,10.10
2018-12-22T05:00:46.733Z,10.10
2018-12-22T05:03:17.964Z,10.20
2018-12-22T05:05:48.071Z,10.20
2018-12-22T05:08:22.146Z,10.30
2018-12-22T05:13:33.390Z,10.60
2018-12-22T05:16:07.305Z,10.30
2018-12-22T05:18:41.233Z,10.30
2018-12-22T05:21:15.274Z,10.30
2018-12-22T05:23:50.264Z,10.40
2018-12-22T05:26:24.492Z,10.30
2018-12-22T05:28:59.320Z,10.30
2018-12-22T05:31:34.014Z,10.30
2018-12-22T05:34:10.094Z,10.20
2018-12-22T05:36:40.897Z,10.20
2018-12-22T05:39:15.017Z,10.20
2018-12-22T05:41:49.321Z,10.20
2018-12-22T05:44:23.261Z,10.20
2018-12-22T05:46:57.797Z,10.20
2018-12-22T05:49:28.509Z,10.20
2018-12-22T05:52:03.016Z,10.20
2018-12-22T05:54:33.566Z,10.20
2018-12-22T05:57:07.590Z,10.20
2018-12-22T05:59:41.775Z,10.30
2018-12-22T06:02:16.810Z,10.20
2018-12-22T06:04:51.331Z,10.40
2018-12-22T06:07:26.041Z,10.30
2018-12-22T06:09:59.985Z,10.30
2018-12-22T06:12:34.229Z,10.30
2018-12-22T06:15:08.309Z,10.30
2018-12-22T06:17:43.038Z,10.30
2018-12-22T06:20:17.397Z,10.30
2018-12-22T06:22:51.542Z,10.30
2018-12-22T06:25:25.566Z,10.30
2018-12-22T06:27:59.499Z,10.30
2018-12-22T06:30:33.410Z,10.30
2018-12-22T06:33:03.486Z,10.30
2018-12-22T06:35:37.730Z,10.30
2018-12-22T06:38:11.753Z,10.30
2018-12-22T06:40:45.682Z,10.30
2018-12-22T06:43:19.638Z,10.30
2018-12-22T06:45:53.569Z,10.40
2018-12-22T06:48:27.506Z,10.40
2018-12-22T06:51:01.447Z,10.50
2018-12-22T06:53:35.466Z,10.50
2018-12-22T06:56:09.694Z,10.50
2018-12-22T06:58:44.550Z,10.50
2018-12-22T07:01:18.594Z,10.50
2018-12-22T07:03:53.256Z,10.50
2018-12-22T07:06:27.493Z,10.60
2018-12-22T07:09:02.203Z,10.60
2018-12-22T07:11:36.242Z,10.50
2018-12-22T07:14:11.245Z,10.40
2018-12-22T07:16:45.260Z,10.40
2018-12-22T07:19:19.966Z,10.40
2018-12-22T07:21:54.017Z,10.40
2018-12-22T07:24:28.053Z,10.30
2018-12-22T07:27:02.281Z,10.30
2018-12-22T07:32:12.406Z,10.20
2018-12-22T07:34:46.317Z,10.30
2018-12-22T07:37:20.344Z,10.40
2018-12-22T07:44:59.070Z,10.00
2018-12-22T07:47:33.311Z,9.90
2018-12-22T07:50:07.286Z,9.80
2018-12-22T07:52:51.432Z,9.80
2018-12-22T07:55:20.625Z,9.80
2018-12-22T07:57:54.962Z,9.80
2018-12-22T08:00:25.111Z,9.90
2018-12-22T08:02:59.898Z,9.90
2018-12-22T08:05:38.628Z,9.90
2018-12-22T08:08:10.844Z,10.00
2018-12-22T08:10:44.887Z,9.90
2018-12-22T08:13:18.909Z,9.90
2018-12-22T08:15:53.255Z,10.00
2018-12-22T08:18:27.194Z,10.00
2018-12-22T08:21:01.198Z,10.00
2018-12-22T08:23:36.117Z,10.00
2018-12-22T08:26:10.059Z,10.00
2018-12-22T08:28:44.154Z,10.10
2018-12-22T08:31:18.975Z,10.20
2018-12-22T08:33:55.905Z,10.20
2018-12-22T08:36:26.750Z,10.30
2018-12-22T08:39:00.886Z,10.20
2018-12-22T08:41:34.991Z,10.30
2018-12-22T08:44:11.133Z,10.30
2018-12-22T08:46:45.146Z,10.40
2018-12-22T08:49:19.874Z,10.30
2018-12-22T08:51:53.782Z,10.30
2018-12-22T08:54:27.925Z,10.30
2018-12-22T08:57:02.052Z,10.30
2018-12-22T09:04:38.989Z,10.50
2018-12-22T09:07:13.011Z,10.50
2018-12-22T09:09:47.863Z,10.50
2018-12-22T09:12:24.026Z,10.50
2018-12-22T09:14:57.957Z,9.80
2018-12-22T09:17:31.878Z,9.60
2018-12-22T09:20:07.549Z,10.50
2018-12-22T09:22:41.691Z,10.50
2018-12-22T09:27:47.309Z,10.90
2018-12-22T09:30:21.430Z,11.00
2018-12-22T09:32:57.625Z,11.10
2018-12-22T09:35:32.469Z,11.10
2018-12-22T09:38:06.694Z,11.10
2018-12-22T09:40:40.645Z,11.10
2018-12-22T09:43:16.747Z,11.10
2018-12-22T09:45:50.717Z,11.00
2018-12-22T09:48:25.563Z,11.00
2018-12-22T09:50:59.583Z,11.10
2018-12-22T09:53:35.645Z,11.00
2018-12-22T09:56:09.593Z,11.10
2018-12-22T09:58:40.322Z,11.10
2018-12-22T10:03:49.229Z,11.30
2018-12-22T10:06:23.158Z,11.30
2018-12-22T10:08:57.313Z,11.50
2018-12-22T10:11:31.242Z,11.60
2018-12-22T10:14:05.174Z,11.50
2018-12-22T10:16:39.350Z,11.60
2018-12-22T10:19:13.301Z,11.60
2018-12-22T10:21:47.249Z,10.80
2018-12-22T10:24:22.073Z,11.60
2018-12-22T10:26:55.993Z,11.60
2018-12-22T10:29:30.123Z,11.70
2018-12-22T10:32:06.025Z,12.00
2018-12-22T10:34:40.039Z,12.20
2018-12-22T10:37:16.961Z,11.60
2018-12-22T10:39:51.253Z,11.60
2018-12-22T10:44:52.030Z,11.30
2018-12-22T10:47:26.274Z,11.40
2018-12-22T10:50:01.110Z,11.40
2018-12-22T10:52:36.769Z,11.40
2018-12-22T10:55:10.746Z,11.30
2018-12-22T10:57:41.361Z,11.20
2018-12-22T11:00:16.173Z,11.30
2018-12-22T11:02:50.158Z,11.30
2018-12-22T11:05:24.173Z,11.20
2018-12-22T11:07:58.218Z,11.10
2018-12-22T11:13:06.910Z,10.80
2018-12-22T11:15:40.845Z,10.60
2018-12-22T11:20:45.903Z,10.00
2018-12-22T11:25:55.603Z,9.50
2018-12-22T11:31:00.593Z,9.10
2018-12-22T11:33:35.517Z,9.00
2018-12-22T11:38:44.028Z,8.70
2018-12-22T11:41:18.035Z,8.70
2018-12-22T11:43:52.293Z,8.70
2018-12-22T11:46:26.889Z,8.60
2018-12-22T11:49:01.156Z,8.50
2018-12-22T11:51:35.823Z,8.40
2018-12-22T11:54:05.898Z,8.30
2018-12-22T11:56:39.865Z,8.30
2018-12-22T11:59:14.081Z,8.20
2018-12-22T12:01:48.925Z,8.20
2018-12-22T12:06:57.429Z,8.20
2018-12-22T12:09:31.643Z,8.30
2018-12-22T12:12:05.754Z,8.30
2018-12-22T12:14:36.566Z,8.40
2018-12-22T12:17:11.041Z,8.40
2018-12-22T12:19:41.354Z,8.60
2018-12-22T12:22:15.446Z,8.60
2018-12-22T12:24:49.666Z,8.70
2018-12-22T12:27:23.570Z,8.70
2018-12-22T12:29:57.746Z,8.70
2018-12-22T12:32:31.798Z,8.80
2018-12-22T12:37:40.512Z,9.50
2018-12-22T12:42:49.686Z,10.00
2018-12-22T12:45:23.690Z,10.80
2018-12-22T12:47:58.414Z,11.80
2018-12-22T12:53:09.547Z,11.60
2018-12-22T12:55:41.337Z,12.20
2018-12-22T13:00:50.738Z,12.20
2018-12-22T13:03:26.374Z,12.20
2018-12-22T13:06:01.177Z,11.80
2018-12-22T13:11:10.146Z,12.80
2018-12-22T13:13:46.242Z,12.50
2018-12-22T13:16:20.958Z,11.80
2018-12-22T13:18:54.949Z,12.00
2018-12-22T13:21:28.908Z,11.90
2018-12-22T13:24:05.021Z,11.20
2018-12-22T13:26:39.087Z,10.70
2018-12-22T13:29:13.906Z,10.50
2018-12-22T13:31:47.939Z,10.80
2018-12-22T13:34:21.962Z,10.60
2018-12-22T13:36:55.901Z,10.60
2018-12-22T13:42:04.982Z,10.10
2018-12-22T13:44:39.785Z,10.00
2018-12-22T13:47:13.801Z,9.90
2018-12-22T13:49:48.184Z,9.70
2018-12-22T13:52:23.122Z,9.60
2018-12-22T13:57:31.948Z,9.30
2018-12-22T14:00:12.577Z,9.30
2018-12-22T14:05:24.397Z,9.20
2018-12-22T14:07:54.921Z,9.10
2018-12-22T14:13:00.334Z,9.00
2018-12-22T14:15:34.878Z,8.70
2018-12-22T14:18:11.878Z,8.70
2018-12-22T14:20:47.057Z,8.60
2018-12-22T14:23:25.794Z,8.50
2018-12-22T14:26:00.602Z,8.60
2018-12-22T14:28:34.722Z,8.50
2018-12-22T14:31:09.539Z,8.40
2018-12-22T14:33:44.114Z,8.30
2018-12-22T14:36:18.458Z,8.80
2018-12-22T14:51:28.570Z,8.20
2018-12-22T14:54:02.818Z,8.10
2018-12-22T14:56:37.646Z,8.10
2018-12-22T14:59:12.361Z,8.00
2018-12-22T15:01:43.118Z,8.00
2018-12-22T15:04:15.001Z,8.00
2018-12-22T15:06:49.333Z,7.90
2018-12-22T15:09:24.198Z,7.80
2018-12-22T15:11:58.313Z,7.80
2018-12-22T15:14:32.436Z,7.80
2018-12-22T15:17:07.278Z,7.70
2018-12-22T15:19:42.113Z,7.60
2018-12-22T15:24:51.166Z,7.50
2018-12-22T15:30:00.294Z,7.40
2018-12-22T15:32:43.929Z,7.30
2018-12-22T15:35:12.143Z,7.20
2018-12-22T15:37:46.101Z,7.20
2018-12-22T15:40:20.185Z,7.10
2018-12-22T15:45:20.834Z,6.80
2018-12-22T15:47:55.737Z,6.90
2018-12-22T15:50:28.190Z,6.90
2018-12-22T15:53:02.713Z,6.90
2018-12-22T15:55:32.846Z,7.00
2018-12-22T15:58:06.893Z,7.00
2018-12-22T16:00:40.914Z,6.90
2018-12-22T16:03:16.007Z,6.90
2018-12-22T16:05:49.946Z,6.90
2018-12-22T16:08:23.970Z,7.00
2018-12-22T16:10:58.030Z,7.10
2018-12-22T16:13:28.555Z,7.10
2018-12-22T16:16:02.722Z,7.00
2018-12-22T16:18:36.638Z,7.10
2018-12-22T16:21:10.750Z,7.10
2018-12-22T16:23:45.749Z,7.10
2018-12-22T16:26:21.948Z,7.20
2018-12-22T16:28:56.993Z,6.80
2018-12-22T16:31:27.600Z,6.70
2018-12-22T16:34:02.474Z,6.80
2018-12-22T16:36:36.498Z,6.80
2018-12-22T16:39:10.557Z,6.80
2018-12-22T16:41:44.570Z,6.70
2018-12-22T16:44:18.481Z,6.70
2018-12-22T16:46:52.522Z,6.80
2018-12-22T16:49:27.400Z,6.80
2018-12-22T16:52:01.486Z,6.80
2018-12-22T16:54:36.297Z,6.80
2018-12-22T16:57:10.145Z,6.80
2018-12-22T16:59:44.867Z,6.70
2018-12-22T17:04:53.862Z,6.60
2018-12-22T17:07:24.586Z,6.70
2018-12-22T17:09:58.498Z,6.70
2018-12-22T17:12:32.441Z,6.70
2018-12-22T17:15:09.281Z,6.70
2018-12-22T17:17:43.242Z,6.80
2018-12-22T17:20:14.689Z,6.80
2018-12-22T17:25:57.026Z,6.90
2018-12-22T17:28:32.361Z,6.90
2018-12-22T17:31:03.334Z,6.90
2018-12-22T17:33:38.174Z,6.80
2018-12-22T17:36:13.208Z,6.90
2018-12-22T17:38:48.154Z,6.90
2018-12-22T17:41:23.502Z,7.00
2018-12-22T17:43:55.083Z,6.70
2018-12-22T17:46:29.842Z,6.90
2018-12-22T17:49:04.585Z,7.10
2018-12-22T17:51:35.398Z,6.90
2018-12-22T17:54:10.262Z,6.80
2018-12-22T17:56:45.126Z,6.90
2018-12-22T17:59:20.176Z,6.90
2018-12-22T18:01:57.515Z,6.70
2018-12-22T18:04:33.653Z,6.80
2018-12-22T18:07:09.063Z,6.70
2018-12-22T18:35:37.305Z,6.60
2018-12-22T18:38:12.636Z,6.50
2018-12-22T18:40:47.687Z,6.60
2018-12-22T18:43:22.970Z,6.60
2018-12-22T18:45:57.922Z,6.60
2018-12-22T18:48:32.900Z,6.50
2018-12-22T18:51:08.034Z,6.50
2018-12-22T18:53:46.093Z,6.50
2018-12-22T18:56:21.579Z,6.50
2018-12-22T18:58:56.930Z,6.50
2018-12-22T19:01:32.414Z,6.60
2018-12-22T19:04:09.382Z,6.70
2018-12-22T19:06:44.529Z,6.70
2018-12-22T19:09:20.974Z,6.70
2018-12-22T19:11:58.378Z,6.80
2018-12-22T19:14:33.310Z,6.90
2018-12-22T19:17:08.266Z,6.80
2018-12-22T19:19:43.430Z,6.80
2018-12-22T19:22:19.559Z,6.80
2018-12-22T19:24:54.431Z,6.90
2018-12-22T19:27:29.470Z,6.80
2018-12-22T19:30:06.627Z,7.00
2018-12-22T19:32:43.774Z,6.90
2018-12-22T19:37:52.776Z,7.10
2018-12-22T19:40:27.919Z,7.10
2018-12-22T19:43:03.402Z,7.10
2018-12-22T19:45:39.360Z,7.10
2018-12-22T19:48:14.389Z,7.10
2018-12-22T19:50:49.523Z,7.20
2018-12-22T19:53:24.459Z,7.20
2018-12-22T19:55:59.366Z,7.30
2018-12-22T19:58:34.226Z,7.20
2018-12-22T20:01:09.488Z,7.30
2018-12-22T20:03:41.319Z,7.30
2018-12-22T20:06:16.259Z,7.20
2018-12-22T20:08:51.302Z,7.30
2018-12-22T20:11:22.423Z,7.30
2018-12-22T20:13:57.463Z,7.30
2018-12-22T20:16:32.536Z,7.40
2018-12-22T20:19:07.402Z,7.40
2018-12-22T20:24:18.621Z,7.30
2018-12-22T20:31:59.519Z,7.30
2018-12-22T20:34:34.336Z,7.40
2018-12-22T20:37:09.395Z,7.40
2018-12-22T20:39:44.522Z,7.40
2018-12-22T20:42:19.462Z,7.50
2018-12-22T20:44:54.594Z,7.50
2018-12-22T20:47:29.650Z,7.50
2018-12-22T20:50:04.994Z,7.50
2018-12-22T20:52:39.951Z,7.50
2018-12-22T20:57:49.690Z,7.50
2018-12-22T21:00:20.686Z,7.50
2018-12-22T21:08:06.694Z,7.20
2018-12-22T21:10:42.031Z,7.30
2018-12-22T21:13:17.014Z,7.30
2018-12-22T21:15:52.038Z,7.20
2018-12-22T21:18:27.287Z,7.20
2018-12-22T21:21:02.338Z,7.20
2018-12-22T21:23:37.370Z,7.20
2018-12-22T21:26:12.485Z,6.90
2018-12-22T21:28:47.474Z,7.20
2018-12-22T21:31:22.643Z,7.20
2018-12-22T21:33:57.686Z,6.90
2018-12-22T21:36:32.724Z,7.20
2018-12-22T21:39:07.819Z,7.30
2018-12-22T21:41:42.627Z,7.30
2018-12-22T21:44:17.946Z,7.30
2018-12-22T21:46:52.918Z,7.30
2018-12-22T21:49:28.042Z,7.30
2018-12-22T21:52:03.338Z,7.30
2018-12-22T21:54:38.282Z,7.40
2018-12-22T21:57:09.410Z,7.30
2018-12-22T21:59:44.385Z,7.30
2018-12-22T22:02:19.074Z,7.30
2018-12-22T22:04:53.958Z,8.10
2018-12-22T22:09:59.157Z,7.30
2018-12-22T22:12:36.446Z,7.30
2018-12-22T22:15:11.686Z,7.30
2018-12-22T22:17:46.618Z,7.30
2018-12-22T22:20:21.667Z,7.30
2018-12-22T22:22:58.343Z,7.30
2018-12-22T22:25:29.308Z,7.30
2018-12-22T22:28:05.253Z,7.40
2018-12-22T22:30:40.258Z,7.40
2018-12-22T22:33:16.334Z,7.30
2018-12-22T22:35:51.470Z,7.30
2018-12-22T22:38:26.623Z,7.20
2018-12-22T22:41:01.556Z,7.20
2018-12-22T22:43:36.782Z,7.20
2018-12-22T22:46:11.655Z,7.20
2018-12-22T22:48:46.471Z,7.20
2018-12-22T22:51:21.776Z,7.20
2018-12-22T22:53:57.507Z,7.20
2018-12-22T22:56:28.046Z,7.20
2018-12-22T22:59:02.962Z,7.30
2018-12-22T23:01:38.051Z,7.10
2018-12-22T23:04:13.146Z,7.40
2018-12-22T23:06:47.901Z,7.50
2018-12-22T23:09:22.426Z,7.50
2018-12-22T23:11:57.676Z,7.40
2018-12-22T23:14:32.499Z,7.50
2018-12-22T23:17:07.679Z,7.40
2018-12-22T23:19:42.607Z,7.30
2018-12-22T23:22:17.670Z,7.30
2018-12-22T23:24:52.605Z,7.10
2018-12-22T23:27:27.930Z,7.20
2018-12-22T23:30:03.975Z,7.20
2018-12-22T23:32:34.946Z,7.10
2018-12-22T23:35:09.983Z,7.20
2018-12-22T23:37:45.126Z,7.20
2018-12-22T23:40:20.061Z,7.10
2018-12-22T23:42:51.951Z,7.00
2018-12-22T23:45:26.642Z,6.80
2018-12-22T23:48:01.593Z,6.80
2018-12-22T23:50:32.526Z,6.80
2018-12-22T23:53:03.372Z,6.50
2018-12-22T23:55:34.146Z,6.40
2018-12-22T23:58:09.186Z,6.50
